createdAt,value
2018-10-18T00:00:54.875Z,11.90
2018-10-18T00:03:23.258Z,11.80
2018-10-18T00:05:51.923Z,11.90
2018-10-18T00:08:20.258Z,11.80
2018-10-18T00:10:48.752Z,11.80
2018-10-18T00:13:17.508Z,11.80
2018-10-18T00:15:46.109Z,11.70
2018-10-18T00:18:14.332Z,11.70
2018-10-18T00:20:42.674Z,11.70
2018-10-18T00:23:10.978Z,11.60
2018-10-18T00:25:39.333Z,11.60
2018-10-18T00:28:07.504Z,11.60
2018-10-18T00:30:35.693Z,11.50
2018-10-18T00:33:03.991Z,11.60
2018-10-18T00:35:32.140Z,11.60
2018-10-18T00:38:00.431Z,11.50
2018-10-18T00:40:29.132Z,11.50
2018-10-18T00:42:57.240Z,11.50
2018-10-18T00:45:25.356Z,11.40
2018-10-18T00:47:53.816Z,11.40
2018-10-18T00:50:21.938Z,11.40
2018-10-18T00:52:50.317Z,11.50
2018-10-18T00:55:19.677Z,11.40
2018-10-18T00:57:47.793Z,11.40
2018-10-18T01:00:16.599Z,11.40
2018-10-18T01:02:45.593Z,11.40
2018-10-18T01:05:13.707Z,11.40
2018-10-18T01:07:41.929Z,11.30
2018-10-18T01:10:10.047Z,11.20
2018-10-18T01:12:38.277Z,11.20
2018-10-18T01:15:06.994Z,11.10
2018-10-18T01:17:35.318Z,11.20
2018-10-18T01:20:05.101Z,11.10
2018-10-18T01:22:33.423Z,11.10
2018-10-18T01:25:01.580Z,11.10
2018-10-18T01:27:29.893Z,11.10
2018-10-18T01:29:58.185Z,11.10
2018-10-18T01:32:26.686Z,11.10
2018-10-18T01:34:54.874Z,11.10
2018-10-18T01:37:23.269Z,11.10
2018-10-18T01:39:51.396Z,11.10
2018-10-18T01:42:20.413Z,11.00
2018-10-18T01:44:48.628Z,11.10
2018-10-18T01:47:17.045Z,11.00
2018-10-18T01:49:45.355Z,11.00
2018-10-18T01:52:13.728Z,11.00
2018-10-18T01:54:42.129Z,11.00
2018-10-18T01:57:10.453Z,11.00
2018-10-18T01:59:38.716Z,11.00
2018-10-18T02:02:07.190Z,11.00
2018-10-18T02:04:35.631Z,11.00
2018-10-18T02:07:04.623Z,11.00
2018-10-18T02:09:32.842Z,11.00
2018-10-18T02:12:01.150Z,11.00
2018-10-18T02:14:29.336Z,11.00
2018-10-18T02:16:57.478Z,11.00
2018-10-18T02:19:25.638Z,11.00
2018-10-18T02:21:53.786Z,11.00
2018-10-18T02:24:22.098Z,10.90
2018-10-18T02:26:50.279Z,10.90
2018-10-18T02:29:18.372Z,10.90
2018-10-18T02:31:46.512Z,10.90
2018-10-18T02:34:14.825Z,10.90
2018-10-18T02:36:43.033Z,10.80
2018-10-18T02:39:11.258Z,10.80
2018-10-18T02:41:39.373Z,10.80
2018-10-18T02:44:07.510Z,10.80
2018-10-18T02:46:35.668Z,10.80
2018-10-18T02:49:04.272Z,10.80
2018-10-18T02:51:32.415Z,10.70
2018-10-18T02:54:00.746Z,10.80
2018-10-18T02:56:29.048Z,10.80
2018-10-18T02:58:57.147Z,10.70
2018-10-18T03:01:25.316Z,10.80
2018-10-18T03:03:53.611Z,10.80
2018-10-18T03:06:21.742Z,10.90
2018-10-18T03:08:50.773Z,10.90
2018-10-18T03:11:18.883Z,10.90
2018-10-18T03:13:47.041Z,11.00
2018-10-18T03:16:15.274Z,11.00
2018-10-18T03:18:43.481Z,11.10
2018-10-18T03:21:11.598Z,11.20
2018-10-18T03:23:39.956Z,11.30
2018-10-18T03:26:08.311Z,11.30
2018-10-18T03:28:36.458Z,11.40
2018-10-18T03:31:04.853Z,11.50
2018-10-18T03:33:33.172Z,11.50
2018-10-18T03:36:01.548Z,11.60
2018-10-18T03:38:30.494Z,11.60
2018-10-18T03:40:58.954Z,11.60
2018-10-18T03:43:27.092Z,11.60
2018-10-18T03:45:55.408Z,11.60
2018-10-18T03:48:23.578Z,11.60
2018-10-18T03:50:51.878Z,11.60
2018-10-18T03:53:20.004Z,11.60
2018-10-18T03:55:48.918Z,11.60
2018-10-18T03:58:17.136Z,11.50
2018-10-18T04:00:45.529Z,11.40
2018-10-18T04:03:13.772Z,11.30
2018-10-18T04:05:42.264Z,11.30
2018-10-18T04:08:10.403Z,11.20
2018-10-18T04:10:38.712Z,11.20
2018-10-18T04:13:06.936Z,11.20
2018-10-18T04:15:35.327Z,11.20
2018-10-18T04:18:03.623Z,11.10
2018-10-18T04:20:31.633Z,11.10
2018-10-18T04:22:59.782Z,11.10
2018-10-18T04:25:28.296Z,11.10
2018-10-18T04:27:56.343Z,11.00
2018-10-18T04:30:25.369Z,11.00
2018-10-18T04:32:53.500Z,10.90
2018-10-18T04:35:21.827Z,10.80
2018-10-18T04:37:49.946Z,10.70
2018-10-18T04:40:18.844Z,10.70
2018-10-18T04:42:47.081Z,10.60
2018-10-18T04:45:15.251Z,10.50
2018-10-18T04:47:43.883Z,10.50
2018-10-18T04:50:11.964Z,10.40
2018-10-18T04:52:40.068Z,10.40
2018-10-18T04:55:08.409Z,10.30
2018-10-18T04:57:36.472Z,10.30
2018-10-18T05:00:05.715Z,10.30
2018-10-18T05:02:34.419Z,10.20
2018-10-18T05:05:20.754Z,10.30
2018-10-18T05:07:49.887Z,10.20
2018-10-18T05:10:18.701Z,10.30
2018-10-18T05:12:46.983Z,10.20
2018-10-18T05:15:15.267Z,10.20
2018-10-18T05:17:43.575Z,10.20
2018-10-18T05:20:11.727Z,10.10
2018-10-18T05:22:40.465Z,10.10
2018-10-18T05:25:09.269Z,10.10
2018-10-18T05:27:37.325Z,10.10
2018-10-18T05:30:06.499Z,10.10
2018-10-18T05:32:34.950Z,10.10
2018-10-18T05:35:03.859Z,10.10
2018-10-18T05:37:32.254Z,10.10
2018-10-18T05:40:00.563Z,10.00
2018-10-18T05:42:28.903Z,10.00
2018-10-18T05:44:58.061Z,9.90
2018-10-18T05:47:26.401Z,9.90
2018-10-18T05:49:54.653Z,9.90
2018-10-18T05:52:23.751Z,10.00
2018-10-18T05:54:53.216Z,10.00
2018-10-18T05:57:21.453Z,9.90
2018-10-18T05:59:50.209Z,9.90
2018-10-18T06:02:18.580Z,10.00
2018-10-18T06:04:47.797Z,10.00
2018-10-18T06:07:16.112Z,10.10
2018-10-18T06:09:44.265Z,10.10
2018-10-18T06:12:14.018Z,10.20
2018-10-18T06:14:42.163Z,10.20
2018-10-18T06:17:10.515Z,10.30
2018-10-18T06:19:38.877Z,10.40
2018-10-18T06:22:07.758Z,10.50
2018-10-18T06:24:35.984Z,10.70
2018-10-18T06:27:05.024Z,10.80
2018-10-18T06:29:33.224Z,10.90
2018-10-18T06:32:01.469Z,11.00
2018-10-18T06:34:30.461Z,11.20
2018-10-18T06:36:58.977Z,11.30
2018-10-18T06:39:27.797Z,11.40
2018-10-18T06:41:56.808Z,11.60
2018-10-18T06:44:25.154Z,11.60
2018-10-18T06:46:53.554Z,11.70
2018-10-18T06:49:21.751Z,11.80
2018-10-18T06:51:49.945Z,12.00
2018-10-18T06:54:18.209Z,12.20
2018-10-18T06:56:46.318Z,12.40
2018-10-18T06:59:14.547Z,12.60
2018-10-18T07:01:42.852Z,12.80
2018-10-18T07:04:11.028Z,13.10
2018-10-18T07:06:39.201Z,13.30
2018-10-18T07:09:09.841Z,13.50
2018-10-18T07:11:38.035Z,13.70
2018-10-18T07:14:06.291Z,13.90
2018-10-18T07:16:34.537Z,14.00
2018-10-18T07:19:02.711Z,14.10
2018-10-18T07:21:30.915Z,14.00
2018-10-18T07:23:59.853Z,14.00
2018-10-18T07:26:28.226Z,13.80
2018-10-18T07:28:56.397Z,13.70
2018-10-18T07:31:25.085Z,13.60
2018-10-18T07:33:53.881Z,13.40
2018-10-18T07:36:22.065Z,13.30
2018-10-18T07:38:50.403Z,13.30
2018-10-18T07:41:19.548Z,13.20
2018-10-18T07:43:47.787Z,13.10
2018-10-18T07:46:16.055Z,13.10
2018-10-18T07:48:44.482Z,13.10
2018-10-18T07:51:13.021Z,13.10
2018-10-18T07:53:41.319Z,13.20
2018-10-18T07:56:09.598Z,13.40
2018-10-18T07:58:37.917Z,13.50
2018-10-18T08:01:06.119Z,13.70
2018-10-18T08:03:34.560Z,13.70
2018-10-18T08:06:02.762Z,13.80
2018-10-18T08:08:30.938Z,13.90
2018-10-18T08:10:59.857Z,13.90
2018-10-18T08:13:28.066Z,13.90
2018-10-18T08:15:56.317Z,13.90
2018-10-18T08:18:24.544Z,13.80
2018-10-18T08:20:54.068Z,13.90
2018-10-18T08:23:22.236Z,13.90
2018-10-18T08:25:51.288Z,13.90
2018-10-18T08:28:19.502Z,13.90
2018-10-18T08:30:51.600Z,13.90
2018-10-18T08:33:20.251Z,13.80
2018-10-18T08:35:48.565Z,13.80
2018-10-18T08:38:19.212Z,13.60
2018-10-18T08:40:47.295Z,13.50
2018-10-18T08:43:16.159Z,13.60
2018-10-18T08:45:44.443Z,13.70
2018-10-18T08:48:12.836Z,13.70
2018-10-18T08:50:41.199Z,13.70
2018-10-18T08:53:09.401Z,13.70
2018-10-18T08:55:37.714Z,13.60
2018-10-18T08:58:05.834Z,13.70
2018-10-18T09:00:34.043Z,13.60
2018-10-18T09:03:02.207Z,13.60
2018-10-18T09:05:30.523Z,13.70
2018-10-18T09:07:58.731Z,13.90
2018-10-18T09:10:26.915Z,14.10
2018-10-18T09:12:55.722Z,14.20
2018-10-18T09:15:23.985Z,14.40
2018-10-18T09:17:52.243Z,14.40
2018-10-18T09:20:21.017Z,14.40
2018-10-18T09:22:49.255Z,14.40
2018-10-18T09:25:17.649Z,14.40
2018-10-18T09:27:45.817Z,14.40
2018-10-18T09:30:15.180Z,14.50
2018-10-18T09:32:43.442Z,14.70
2018-10-18T09:35:11.618Z,14.70
2018-10-18T09:37:39.889Z,14.70
2018-10-18T09:40:10.220Z,14.60
2018-10-18T09:42:38.771Z,14.60
2018-10-18T09:45:09.321Z,14.70
2018-10-18T09:47:37.613Z,14.70
2018-10-18T09:50:05.831Z,14.80
2018-10-18T09:52:34.083Z,15.00
2018-10-18T09:55:02.343Z,15.20
2018-10-18T09:57:31.410Z,15.40
2018-10-18T09:59:59.743Z,15.40
2018-10-18T10:02:33.705Z,15.50
2018-10-18T10:05:01.887Z,15.40
2018-10-18T10:07:30.095Z,15.40
2018-10-18T10:09:58.813Z,15.60
2018-10-18T10:12:27.013Z,15.50
2018-10-18T10:14:55.188Z,15.40
2018-10-18T10:17:23.719Z,15.40
2018-10-18T10:19:51.845Z,15.40
2018-10-18T10:22:20.115Z,15.50
2018-10-18T10:24:48.450Z,15.60
2018-10-18T10:27:16.847Z,15.50
2018-10-18T10:29:45.153Z,15.50
2018-10-18T10:32:13.586Z,15.40
2018-10-18T10:34:41.880Z,15.30
2018-10-18T10:37:10.195Z,15.40
2018-10-18T10:39:38.294Z,15.50
2018-10-18T10:42:06.988Z,15.50
2018-10-18T10:44:35.184Z,15.50
2018-10-18T10:47:04.080Z,15.60
2018-10-18T10:49:32.268Z,15.50
2018-10-18T10:52:01.316Z,15.40
2018-10-18T10:54:30.011Z,15.40
2018-10-18T10:56:58.190Z,15.40
2018-10-18T10:59:26.373Z,15.50
2018-10-18T11:01:54.666Z,15.60
2018-10-18T11:04:22.841Z,15.60
2018-10-18T11:06:51.156Z,15.50
2018-10-18T11:09:19.524Z,15.50
2018-10-18T11:11:47.689Z,15.50
2018-10-18T11:14:16.574Z,15.40
2018-10-18T11:16:44.890Z,15.40
2018-10-18T11:19:13.089Z,15.10
2018-10-18T11:21:41.366Z,14.90
2018-10-18T11:24:09.653Z,14.70
2018-10-18T11:26:37.985Z,14.70
2018-10-18T11:29:06.411Z,14.70
2018-10-18T11:31:34.597Z,14.60
2018-10-18T11:34:02.881Z,14.50
2018-10-18T11:36:31.817Z,14.50
2018-10-18T11:39:00.042Z,14.60
2018-10-18T11:41:28.247Z,14.60
2018-10-18T11:43:56.418Z,14.50
2018-10-18T11:46:25.286Z,14.40
2018-10-18T11:48:53.452Z,14.30
2018-10-18T11:51:21.691Z,14.10
2018-10-18T11:53:49.843Z,14.10
2018-10-18T11:56:18.149Z,14.10
2018-10-18T11:58:46.319Z,14.10
2018-10-18T12:01:14.666Z,14.20
2018-10-18T12:03:42.895Z,14.20
2018-10-18T12:06:11.131Z,14.10
2018-10-18T12:08:39.479Z,14.10
2018-10-18T12:11:07.746Z,14.20
2018-10-18T12:13:36.438Z,14.20
2018-10-18T12:16:04.977Z,14.20
2018-10-18T12:18:33.157Z,14.10
2018-10-18T12:21:01.390Z,14.00
2018-10-18T12:23:29.729Z,14.00
2018-10-18T12:25:58.281Z,14.00
2018-10-18T12:28:26.606Z,14.10
2018-10-18T12:30:55.068Z,14.10
2018-10-18T12:33:23.302Z,14.20
2018-10-18T12:35:51.549Z,14.40
2018-10-18T12:38:19.804Z,14.40
2018-10-18T12:40:48.021Z,14.50
2018-10-18T12:43:16.281Z,14.60
2018-10-18T12:45:44.513Z,14.50
2018-10-18T12:48:12.791Z,14.40
2018-10-18T12:50:40.948Z,14.40
2018-10-18T12:53:09.126Z,14.60
2018-10-18T12:55:37.401Z,14.70
2018-10-18T12:58:05.681Z,14.70
2018-10-18T13:00:36.748Z,14.70
2018-10-18T13:03:05.620Z,14.70
2018-10-18T13:05:33.839Z,14.50
2018-10-18T13:08:02.161Z,14.40
2018-10-18T13:10:31.173Z,14.40
2018-10-18T13:12:59.409Z,14.50
2018-10-18T13:15:27.609Z,14.60
2018-10-18T13:17:55.810Z,14.60
2018-10-18T13:20:24.017Z,14.70
2018-10-18T13:22:52.237Z,14.70
2018-10-18T13:25:20.459Z,14.70
2018-10-18T13:27:48.781Z,14.70
2018-10-18T13:30:17.015Z,14.70
2018-10-18T13:32:45.816Z,14.60
2018-10-18T13:35:14.078Z,14.50
2018-10-18T13:37:42.261Z,14.40
2018-10-18T13:40:10.495Z,14.40
2018-10-18T13:42:38.847Z,14.30
2018-10-18T13:45:08.105Z,14.30
2018-10-18T13:47:36.349Z,14.30
2018-10-18T13:50:05.454Z,14.20
2018-10-18T13:52:33.635Z,14.20
2018-10-18T13:55:02.477Z,14.30
2018-10-18T13:57:30.727Z,14.30
2018-10-18T14:00:20.627Z,14.40
2018-10-18T14:02:49.689Z,14.40
2018-10-18T14:05:18.037Z,14.40
2018-10-18T14:07:46.309Z,14.30
2018-10-18T14:10:14.553Z,14.40
2018-10-18T14:12:42.710Z,14.50
2018-10-18T14:15:10.924Z,14.40
2018-10-18T14:17:39.707Z,14.40
2018-10-18T14:20:08.252Z,14.40
2018-10-18T14:22:36.567Z,14.40
2018-10-18T14:25:05.107Z,14.40
2018-10-18T14:27:33.398Z,14.40
2018-10-18T14:30:01.694Z,14.50
2018-10-18T14:32:29.896Z,14.50
2018-10-18T14:34:58.087Z,14.50
2018-10-18T14:37:26.340Z,14.40
2018-10-18T14:39:54.652Z,14.40
2018-10-18T14:42:22.934Z,14.30
2018-10-18T14:44:51.829Z,14.30
2018-10-18T14:47:21.616Z,14.30
2018-10-18T14:49:49.972Z,14.30
2018-10-18T14:52:18.328Z,14.30
2018-10-18T14:54:46.585Z,14.30
2018-10-18T14:57:15.275Z,14.30
2018-10-18T14:59:43.537Z,14.30
2018-10-18T15:02:15.037Z,14.30
2018-10-18T15:04:43.231Z,14.30
2018-10-18T15:07:11.529Z,14.30
2018-10-18T15:09:39.702Z,14.30
2018-10-18T15:12:08.674Z,14.30
2018-10-18T15:14:36.907Z,14.30
2018-10-18T15:17:05.275Z,14.30
2018-10-18T15:19:33.446Z,14.30
2018-10-18T15:22:01.709Z,14.30
2018-10-18T15:24:29.935Z,14.30
2018-10-18T15:26:58.274Z,14.30
2018-10-18T15:29:26.399Z,14.30
2018-10-18T15:31:54.756Z,14.30
2018-10-18T15:34:22.929Z,14.30
2018-10-18T15:36:51.165Z,14.30
2018-10-18T15:39:19.448Z,14.20
2018-10-18T15:41:47.639Z,14.30
2018-10-18T15:44:15.987Z,14.30
2018-10-18T15:46:44.158Z,14.30
2018-10-18T15:49:12.366Z,14.30
2018-10-18T15:51:40.564Z,14.30
2018-10-18T15:54:09.166Z,14.30
2018-10-18T15:56:37.293Z,14.30
2018-10-18T15:59:06.408Z,14.30
2018-10-18T16:01:34.627Z,14.30
2018-10-18T16:04:02.896Z,14.30
2018-10-18T16:06:31.117Z,14.30
2018-10-18T16:08:59.317Z,14.30
2018-10-18T16:11:27.628Z,14.30
2018-10-18T16:13:55.811Z,14.40
2018-10-18T16:16:24.021Z,14.40
2018-10-18T16:18:52.232Z,14.40
2018-10-18T16:21:20.490Z,14.40
2018-10-18T16:23:48.752Z,14.30
2018-10-18T16:26:16.994Z,14.30
2018-10-18T16:28:45.210Z,14.30
2018-10-18T16:31:13.446Z,14.30
2018-10-18T16:33:41.683Z,14.30
2018-10-18T16:36:09.894Z,14.30
2018-10-18T16:38:39.054Z,14.20
2018-10-18T16:41:07.549Z,14.30
2018-10-18T16:43:35.521Z,14.30
2018-10-18T16:46:03.849Z,14.30
2018-10-18T16:48:32.051Z,14.20
2018-10-18T16:51:00.372Z,14.20
2018-10-18T16:53:28.670Z,14.20
2018-10-18T16:55:56.948Z,14.20
2018-10-18T16:58:25.174Z,14.30
2018-10-18T17:00:53.395Z,14.30
2018-10-18T17:03:21.622Z,14.30
2018-10-18T17:05:49.950Z,14.30
2018-10-18T17:08:18.398Z,14.30
2018-10-18T17:10:46.577Z,14.30
2018-10-18T17:13:14.853Z,14.30
2018-10-18T17:15:43.190Z,14.30
2018-10-18T17:18:11.513Z,14.30
2018-10-18T17:20:39.768Z,14.30
2018-10-18T17:23:08.060Z,14.30
2018-10-18T17:25:36.350Z,14.30
2018-10-18T17:28:04.689Z,14.30
2018-10-18T17:30:33.445Z,14.30
2018-10-18T17:33:01.633Z,14.30
2018-10-18T17:35:29.849Z,14.30
2018-10-18T17:37:58.038Z,14.30
2018-10-18T17:40:26.326Z,14.30
2018-10-18T17:42:54.577Z,14.30
2018-10-18T17:45:22.901Z,14.30
2018-10-18T17:47:51.109Z,14.30
2018-10-18T17:50:19.528Z,14.30
2018-10-18T17:52:47.982Z,14.30
2018-10-18T17:55:16.274Z,14.30
2018-10-18T17:57:44.512Z,14.30
2018-10-18T18:00:13.450Z,14.30
2018-10-18T18:02:41.944Z,14.30
2018-10-18T18:05:11.570Z,14.30
2018-10-18T18:07:39.941Z,14.40
2018-10-18T18:10:12.868Z,14.30
2018-10-18T18:12:41.189Z,14.30
2018-10-18T18:15:09.824Z,14.30
2018-10-18T18:17:38.408Z,14.30
2018-10-18T18:20:08.355Z,14.30
2018-10-18T18:22:36.684Z,14.30
2018-10-18T18:25:07.232Z,14.30
2018-10-18T18:27:36.041Z,14.30
2018-10-18T18:30:07.138Z,14.40
2018-10-18T18:32:35.343Z,14.40
2018-10-18T18:35:03.780Z,14.40
2018-10-18T18:37:32.029Z,14.30
2018-10-18T18:40:00.246Z,14.30
2018-10-18T18:42:28.566Z,14.30
2018-10-18T18:45:02.348Z,14.30
2018-10-18T18:47:30.596Z,14.30
2018-10-18T18:49:58.803Z,14.30
2018-10-18T18:52:27.037Z,14.30
2018-10-18T18:54:55.501Z,14.30
2018-10-18T18:57:23.636Z,14.20
2018-10-18T18:59:52.327Z,14.30
2018-10-18T19:02:21.281Z,14.30
2018-10-18T19:04:49.454Z,14.30
2018-10-18T19:07:17.650Z,14.20
2018-10-18T19:09:45.793Z,14.20
2018-10-18T19:12:14.034Z,14.20
2018-10-18T19:14:42.254Z,14.20
2018-10-18T19:17:10.444Z,14.20
2018-10-18T19:19:38.967Z,14.20
2018-10-18T19:22:07.805Z,14.20
2018-10-18T19:24:36.007Z,14.10
2018-10-18T19:27:04.424Z,14.10
2018-10-18T19:29:32.587Z,14.10
2018-10-18T19:32:00.745Z,14.10
2018-10-18T19:34:29.026Z,14.10
2018-10-18T19:36:57.247Z,14.10
2018-10-18T19:39:25.463Z,14.10
2018-10-18T19:41:53.658Z,14.10
2018-10-18T19:44:21.834Z,14.10
2018-10-18T19:46:50.042Z,14.10
2018-10-18T19:49:18.269Z,14.10
2018-10-18T19:51:46.412Z,14.10
2018-10-18T19:54:14.583Z,14.10
2018-10-18T19:56:42.762Z,14.10
2018-10-18T19:59:10.936Z,14.10
2018-10-18T20:01:39.110Z,14.00
2018-10-18T20:04:07.344Z,14.00
2018-10-18T20:06:35.499Z,14.00
2018-10-18T20:09:06.612Z,14.00
2018-10-18T20:11:34.723Z,14.00
2018-10-18T20:14:02.975Z,14.00
2018-10-18T20:16:31.107Z,14.00
2018-10-18T20:18:59.236Z,14.00
2018-10-18T20:21:27.392Z,13.90
2018-10-18T20:23:55.567Z,13.90
2018-10-18T20:26:23.860Z,13.90
2018-10-18T20:28:51.912Z,13.90
2018-10-18T20:31:20.092Z,13.90
2018-10-18T20:33:48.276Z,13.90
2018-10-18T20:36:23.176Z,13.90
2018-10-18T20:38:52.318Z,13.90
2018-10-18T20:41:20.644Z,13.90
2018-10-18T20:43:48.818Z,13.90
2018-10-18T20:46:16.959Z,13.90
2018-10-18T20:48:45.111Z,13.90
2018-10-18T20:51:13.364Z,13.90
2018-10-18T20:53:41.485Z,13.90
2018-10-18T20:56:09.642Z,13.80
2018-10-18T20:58:37.886Z,13.90
2018-10-18T21:01:07.282Z,13.90
2018-10-18T21:03:36.237Z,13.90
2018-10-18T21:06:04.636Z,13.80
2018-10-18T21:08:32.897Z,13.90
2018-10-18T21:11:02.322Z,13.80
2018-10-18T21:13:30.438Z,13.80
2018-10-18T21:15:58.602Z,13.80
2018-10-18T21:18:26.753Z,13.80
2018-10-18T21:20:54.920Z,13.70
2018-10-18T21:23:23.071Z,13.70
2018-10-18T21:25:51.265Z,13.70
2018-10-18T21:28:19.415Z,13.70
2018-10-18T21:30:47.595Z,13.70
2018-10-18T21:33:15.844Z,13.70
2018-10-18T21:35:50.733Z,13.70
2018-10-18T21:38:18.912Z,13.70
2018-10-18T21:40:47.102Z,13.70
2018-10-18T21:43:15.214Z,13.70
2018-10-18T21:45:43.458Z,13.70
2018-10-18T21:48:11.738Z,13.60
2018-10-18T21:50:40.071Z,13.60
2018-10-18T21:53:08.263Z,13.60
2018-10-18T21:55:36.433Z,13.60
2018-10-18T21:58:04.725Z,13.50
2018-10-18T22:00:37.566Z,13.50
2018-10-18T22:03:05.763Z,13.50
2018-10-18T22:05:33.941Z,13.50
2018-10-18T22:08:02.133Z,13.50
2018-10-18T22:10:30.407Z,13.50
2018-10-18T22:12:58.571Z,13.50
2018-10-18T22:15:26.877Z,13.50
2018-10-18T22:17:55.026Z,13.50
2018-10-18T22:20:23.396Z,13.50
2018-10-18T22:22:51.746Z,13.40
2018-10-18T22:25:20.098Z,13.40
2018-10-18T22:27:48.265Z,13.40
2018-10-18T22:30:16.539Z,13.40
2018-10-18T22:32:44.713Z,13.30
2018-10-18T22:35:13.116Z,13.30
2018-10-18T22:37:41.262Z,13.20
2018-10-18T22:40:09.704Z,13.10
2018-10-18T22:42:37.883Z,13.10
2018-10-18T22:45:07.141Z,13.00
2018-10-18T22:47:35.288Z,13.00
2018-10-18T22:50:03.674Z,13.00
2018-10-18T22:52:32.064Z,13.00
2018-10-18T22:55:00.176Z,13.00
2018-10-18T22:57:28.498Z,13.00
2018-10-18T22:59:56.825Z,13.00
2018-10-18T23:02:24.970Z,13.00
2018-10-18T23:04:53.141Z,13.10
2018-10-18T23:07:21.518Z,13.10
2018-10-18T23:09:50.264Z,13.10
2018-10-18T23:12:18.642Z,13.10
2018-10-18T23:14:46.806Z,13.00
2018-10-18T23:17:14.999Z,13.10
2018-10-18T23:19:43.272Z,13.10
2018-10-18T23:22:11.474Z,13.00
2018-10-18T23:24:39.572Z,13.00
2018-10-18T23:27:08.255Z,13.00
2018-10-18T23:29:37.680Z,13.00
2018-10-18T23:32:06.225Z,13.00
2018-10-18T23:34:34.358Z,13.00
2018-10-18T23:37:02.567Z,13.00
2018-10-18T23:39:31.072Z,13.00
2018-10-18T23:41:59.231Z,13.00
2018-10-18T23:44:27.868Z,13.00
2018-10-18T23:46:56.221Z,13.00
2018-10-18T23:49:24.320Z,13.00
2018-10-18T23:51:52.621Z,13.00
2018-10-18T23:54:20.801Z,13.00
2018-10-18T23:56:49.065Z,13.00
2018-10-18T23:59:17.241Z,13.00
